PWSweather.com
Personal Weather Stations
Station Observations
WD4JKH
Forsyth, GA 31029

Forsyth, GA 31029

Lat: 33.033225, Lon: -83.927995

Elevation: 709

Station Type: Davis Vantage VUE

High Low Average
Temperature 77.6°F25.3°C 69.7°F20.9°C 74.1°F23.4°C
Dew Point 75.2°F24.0°C 68.8°F20.4°C 72.6°F22.6°C
Winds 5.1 mph 8.2 kmh Calm Calm 2.0 mph S3.2 kmh S
Wind Gusts 11.0 mph17.7 kmh -- 5.0 mph8.0 kmh
Humidity 98% 88% 95%
Pressure 30.07 in1018.3 mb 29.98 in1015.2 mb -
Precipitation 0.19 in4.8 mm - -
Hour Temp Dew Point Humidity Winds Wind Gusts Pressure Precip Precip Rate Daily Precip Total
12:02 AM 70.9°F21.6°C 69.7°F20.9°C 96% Calm Calm -- 30.05 in1017.6 mb 0.00 in0.0 mm 0.00 in0.0 mm 0.00 in0.0 mm
12:07 AM 70.9°F21.6°C 69.7°F20.9°C 96% Calm Calm -- 30.05 in1017.6 mb 0.00 in0.0 mm 0.00 in0.0 mm 0.00 in0.0 mm
12:12 AM 70.9°F21.6°C 69.7°F20.9°C 96% Calm Calm -- 30.05 in1017.6 mb 0.00 in0.0 mm 0.00 in0.0 mm 0.00 in0.0 mm
12:17 AM 70.9°F21.6°C 69.7°F20.9°C 96% Calm Calm -- 30.05 in1017.6 mb 0.01 in0.3 mm 0.12 in3.0 mm 0.01 in0.3 mm
12:22 AM 70.9°F21.6°C 69.7°F20.9°C 96% 1.0 mph SW1.6 kmh SW 1.0 mph1.6 kmh 30.05 in1017.6 mb 0.02 in0.5 mm 0.12 in3.0 mm 0.02 in0.5 mm
12:27 AM 70.8°F21.6°C 69.6°F20.9°C 96% 1.3 mph SW2.1 kmh SW 2.0 mph3.2 kmh 30.04 in1017.3 mb 0.03 in0.8 mm 0.12 in3.0 mm 0.03 in0.8 mm
12:32 AM 70.8°F21.6°C 69.9°F21.1°C 97% 1.0 mph SW1.6 kmh SW 3.0 mph4.8 kmh 30.04 in1017.3 mb 0.03 in0.8 mm 0.00 in0.0 mm 0.03 in0.8 mm
12:37 AM 70.7°F21.5°C 69.8°F21.0°C 97% 1.1 mph SW1.8 kmh SW 3.0 mph4.8 kmh 30.04 in1017.3 mb 0.04 in1.0 mm 0.12 in3.0 mm 0.04 in1.0 mm
12:42 AM 70.7°F21.5°C 69.8°F21.0°C 97% 1.3 mph S2.1 kmh S 3.0 mph4.8 kmh 30.04 in1017.3 mb 0.05 in1.3 mm 0.12 in3.0 mm 0.05 in1.3 mm
12:47 AM 70.7°F21.5°C 69.8°F21.0°C 97% 1.0 mph SW1.6 kmh SW 3.0 mph4.8 kmh 30.04 in1017.3 mb 0.06 in1.5 mm 0.12 in3.0 mm 0.06 in1.5 mm
12:52 AM 70.6°F21.4°C 69.7°F20.9°C 97% 1.5 mph SW2.4 kmh SW 3.0 mph4.8 kmh 30.04 in1017.3 mb 0.07 in1.8 mm 0.12 in3.0 mm 0.07 in1.8 mm
12:57 AM 70.5°F21.4°C 69.6°F20.9°C 97% 1.0 mph SE1.6 kmh SE 3.0 mph4.8 kmh 30.04 in1017.3 mb 0.07 in1.8 mm 0.00 in0.0 mm 0.07 in1.8 mm
01:02 AM 70.4°F21.3°C 69.5°F20.8°C 97% 1.5 mph SW2.4 kmh SW 4.0 mph6.4 kmh 30.04 in1017.3 mb 0.07 in1.8 mm 0.00 in0.0 mm 0.07 in1.8 mm
01:07 AM 70.2°F21.2°C 69.3°F20.7°C 97% 1.0 mph SW1.6 kmh SW 4.0 mph6.4 kmh 30.03 in1016.9 mb 0.07 in1.8 mm 0.00 in0.0 mm 0.07 in1.8 mm
01:12 AM 70.1°F21.2°C 69.2°F20.7°C 97% Calm Calm 4.0 mph6.4 kmh 30.03 in1016.9 mb 0.07 in1.8 mm 0.00 in0.0 mm 0.07 in1.8 mm
01:17 AM 70.1°F21.2°C 69.2°F20.7°C 97% 1.5 mph SSE2.4 kmh SSE 4.0 mph6.4 kmh 30.04 in1017.3 mb 0.06 in1.5 mm 0.00 in0.0 mm 0.07 in1.8 mm
01:22 AM 70.0°F21.1°C 69.1°F20.6°C 97% 1.0 mph SSW1.6 kmh SSW 3.0 mph4.8 kmh 30.04 in1017.3 mb 0.06 in1.5 mm 0.00 in0.0 mm 0.08 in2.0 mm
01:27 AM 69.9°F21.1°C 69.0°F20.6°C 97% 1.0 mph S1.6 kmh S 3.0 mph4.8 kmh 30.03 in1016.9 mb 0.05 in1.3 mm 0.00 in0.0 mm 0.08 in2.0 mm
01:32 AM 69.9°F21.1°C 69.0°F20.6°C 97% Calm Calm 4.0 mph6.4 kmh 30.03 in1016.9 mb 0.05 in1.3 mm 0.00 in0.0 mm 0.08 in2.0 mm
01:37 AM 70.0°F21.1°C 69.1°F20.6°C 97% 1.7 mph SW2.7 kmh SW 4.0 mph6.4 kmh 30.02 in1016.6 mb 0.04 in1.0 mm 0.00 in0.0 mm 0.08 in2.0 mm
01:42 AM 69.9°F21.1°C 69.0°F20.6°C 97% Calm Calm 4.0 mph6.4 kmh 30.02 in1016.6 mb 0.03 in0.8 mm 0.00 in0.0 mm 0.08 in2.0 mm
01:47 AM 69.9°F21.1°C 69.0°F20.6°C 97% 1.0 mph SW1.6 kmh SW 4.0 mph6.4 kmh 30.02 in1016.6 mb 0.02 in0.5 mm 0.00 in0.0 mm 0.08 in2.0 mm
01:52 AM 69.8°F21.0°C 68.9°F20.5°C 97% 1.1 mph S1.8 kmh S 3.0 mph4.8 kmh 30.02 in1016.6 mb 0.01 in0.3 mm 0.00 in0.0 mm 0.08 in2.0 mm
01:57 AM 69.8°F21.0°C 68.9°F20.5°C 97% 1.0 mph SSW1.6 kmh SSW 3.0 mph4.8 kmh 30.02 in1016.6 mb 0.01 in0.3 mm 0.00 in0.0 mm 0.08 in2.0 mm
02:02 AM 69.7°F20.9°C 68.8°F20.4°C 97% 1.3 mph SE2.1 kmh SE 3.0 mph4.8 kmh 30.02 in1016.6 mb 0.01 in0.3 mm 0.00 in0.0 mm 0.08 in2.0 mm
02:07 AM 69.7°F20.9°C 68.8°F20.4°C 97% 1.3 mph SE2.1 kmh SE 4.0 mph6.4 kmh 30.01 in1016.3 mb 0.01 in0.3 mm 0.00 in0.0 mm 0.08 in2.0 mm
02:12 AM 69.7°F20.9°C 68.8°F20.4°C 97% Calm Calm 4.0 mph6.4 kmh 30.01 in1016.3 mb 0.01 in0.3 mm 0.00 in0.0 mm 0.08 in2.0 mm
02:17 AM 69.7°F20.9°C 68.8°F20.4°C 97% Calm Calm 4.0 mph6.4 kmh 30.01 in1016.3 mb 0.01 in0.3 mm 0.00 in0.0 mm 0.08 in2.0 mm
02:22 AM 69.7°F20.9°C 69.1°F20.6°C 98% Calm Calm 4.0 mph6.4 kmh 30.00 in1015.9 mb 0.00 in0.0 mm 0.00 in0.0 mm 0.08 in2.0 mm
02:27 AM 69.7°F20.9°C 69.1°F20.6°C 98% Calm Calm 2.0 mph3.2 kmh 30.01 in1016.3 mb 0.00 in0.0 mm 0.00 in0.0 mm 0.08 in2.0 mm
02:32 AM 69.8°F21.0°C 69.2°F20.7°C 98% Calm Calm 2.0 mph3.2 kmh 30.01 in1016.3 mb 0.00 in0.0 mm 0.00 in0.0 mm 0.08 in2.0 mm
02:37 AM 69.8°F21.0°C 69.2°F20.7°C 98% 1.1 mph SE1.8 kmh SE 2.0 mph3.2 kmh 30.01 in1016.3 mb 0.00 in0.0 mm 0.00 in0.0 mm 0.08 in2.0 mm
02:42 AM 69.8°F21.0°C 69.2°F20.7°C 98% 1.0 mph SE1.6 kmh SE 2.0 mph3.2 kmh 30.01 in1016.3 mb 0.00 in0.0 mm 0.00 in0.0 mm 0.08 in2.0 mm
02:47 AM 69.9°F21.1°C 69.3°F20.7°C 98% 1.7 mph SE2.7 kmh SE 3.0 mph4.8 kmh 30.01 in1016.3 mb 0.00 in0.0 mm 0.00 in0.0 mm 0.08 in2.0 mm
02:52 AM 70.0°F21.1°C 69.4°F20.8°C 98% 1.4 mph SSE2.3 kmh SSE 3.0 mph4.8 kmh 30.01 in1016.3 mb 0.00 in0.0 mm 0.00 in0.0 mm 0.08 in2.0 mm
02:57 AM 70.1°F21.2°C 69.5°F20.8°C 98% 1.0 mph WSW1.6 kmh WSW 3.0 mph4.8 kmh 30.01 in1016.3 mb 0.00 in0.0 mm 0.00 in0.0 mm 0.08 in2.0 mm
03:02 AM 70.1°F21.2°C 69.5°F20.8°C 98% 1.3 mph SSE2.1 kmh SSE 3.0 mph4.8 kmh 30.01 in1016.3 mb 0.00 in0.0 mm 0.00 in0.0 mm 0.08 in2.0 mm
03:07 AM 70.1°F21.2°C 69.5°F20.8°C 98% 1.3 mph SSE2.1 kmh SSE 3.0 mph4.8 kmh 30.01 in1016.3 mb 0.00 in0.0 mm 0.00 in0.0 mm 0.08 in2.0 mm
03:12 AM 70.2°F21.2°C 69.6°F20.9°C 98% 1.1 mph S1.8 kmh S 2.0 mph3.2 kmh 30.01 in1016.3 mb 0.00 in0.0 mm 0.00 in0.0 mm 0.08 in2.0 mm
03:17 AM 70.3°F21.3°C 69.7°F20.9°C 98% Calm Calm 2.0 mph3.2 kmh 30.01 in1016.3 mb 0.00 in0.0 mm 0.00 in0.0 mm 0.08 in2.0 mm
03:22 AM 70.4°F21.3°C 69.8°F21.0°C 98% 1.3 mph SE2.1 kmh SE 2.0 mph3.2 kmh 30.01 in1016.3 mb 0.00 in0.0 mm 0.00 in0.0 mm 0.08 in2.0 mm
03:27 AM 70.5°F21.4°C 69.9°F21.1°C 98% 1.6 mph SE2.6 kmh SE 2.0 mph3.2 kmh 30.01 in1016.3 mb 0.00 in0.0 mm 0.00 in0.0 mm 0.08 in2.0 mm
03:32 AM 70.6°F21.4°C 70.0°F21.1°C 98% 1.6 mph SE2.6 kmh SE 3.0 mph4.8 kmh 30.01 in1016.3 mb 0.00 in0.0 mm 0.00 in0.0 mm 0.08 in2.0 mm
03:37 AM 70.7°F21.5°C 70.1°F21.2°C 98% 1.3 mph ESE2.1 kmh ESE 3.0 mph4.8 kmh 30.01 in1016.3 mb 0.00 in0.0 mm 0.00 in0.0 mm 0.08 in2.0 mm
03:42 AM 70.9°F21.6°C 70.3°F21.3°C 98% 1.4 mph SE2.3 kmh SE 3.0 mph4.8 kmh 30.00 in1015.9 mb 0.00 in0.0 mm 0.00 in0.0 mm 0.08 in2.0 mm
03:47 AM 71.0°F21.7°C 70.4°F21.3°C 98% 1.3 mph SE2.1 kmh SE 3.0 mph4.8 kmh 30.00 in1015.9 mb 0.00 in0.0 mm 0.00 in0.0 mm 0.08 in2.0 mm
03:52 AM 71.1°F21.7°C 70.5°F21.4°C 98% 2.0 mph S3.2 kmh S 4.0 mph6.4 kmh 30.01 in1016.3 mb 0.00 in0.0 mm 0.00 in0.0 mm 0.08 in2.0 mm
03:57 AM 71.3°F21.8°C 70.7°F21.5°C 98% 2.0 mph SE3.2 kmh SE 4.0 mph6.4 kmh 30.01 in1016.3 mb 0.00 in0.0 mm 0.00 in0.0 mm 0.08 in2.0 mm
04:02 AM 71.5°F21.9°C 70.9°F21.6°C 98% 2.5 mph SSE4.0 kmh SSE 5.0 mph8.0 kmh 30.01 in1016.3 mb 0.00 in0.0 mm 0.00 in0.0 mm 0.08 in2.0 mm
04:07 AM 71.6°F22.0°C 71.0°F21.7°C 98% 1.9 mph SSE3.1 kmh SSE 5.0 mph8.0 kmh 30.01 in1016.3 mb 0.00 in0.0 mm 0.00 in0.0 mm 0.08 in2.0 mm
04:12 AM 71.6°F22.0°C 71.0°F21.7°C 98% 2.7 mph S4.3 kmh S 6.0 mph9.7 kmh 30.01 in1016.3 mb 0.00 in0.0 mm 0.00 in0.0 mm 0.08 in2.0 mm
04:17 AM 71.8°F22.1°C 71.2°F21.8°C 98% 2.8 mph SE4.5 kmh SE 6.0 mph9.7 kmh 30.01 in1016.3 mb 0.00 in0.0 mm 0.00 in0.0 mm 0.08 in2.0 mm
04:22 AM 71.9°F22.2°C 71.3°F21.8°C 98% 1.8 mph SE2.9 kmh SE 6.0 mph9.7 kmh 30.01 in1016.3 mb 0.00 in0.0 mm 0.00 in0.0 mm 0.08 in2.0 mm
04:27 AM 71.9°F22.2°C 71.3°F21.8°C 98% 1.3 mph SE2.1 kmh SE 6.0 mph9.7 kmh 30.01 in1016.3 mb 0.00 in0.0 mm 0.00 in0.0 mm 0.08 in2.0 mm
04:32 AM 72.0°F22.2°C 71.4°F21.9°C 98% 3.1 mph S5.0 kmh S 8.0 mph12.9 kmh 30.01 in1016.3 mb 0.00 in0.0 mm 0.00 in0.0 mm 0.08 in2.0 mm
04:37 AM 72.0°F22.2°C 71.4°F21.9°C 98% 2.0 mph SE3.2 kmh SE 8.0 mph12.9 kmh 30.02 in1016.6 mb 0.00 in0.0 mm 0.00 in0.0 mm 0.08 in2.0 mm
04:42 AM 72.0°F22.2°C 71.4°F21.9°C 98% 2.2 mph SE3.5 kmh SE 8.0 mph12.9 kmh 30.02 in1016.6 mb 0.00 in0.0 mm 0.00 in0.0 mm 0.08 in2.0 mm
04:47 AM 72.0°F22.2°C 71.4°F21.9°C 98% 3.1 mph S5.0 kmh S 8.0 mph12.9 kmh 30.02 in1016.6 mb 0.00 in0.0 mm 0.00 in0.0 mm 0.08 in2.0 mm
04:52 AM 72.0°F22.2°C 71.4°F21.9°C 98% 2.2 mph S3.5 kmh S 8.0 mph12.9 kmh 30.02 in1016.6 mb 0.00 in0.0 mm 0.00 in0.0 mm 0.08 in2.0 mm
04:57 AM 72.0°F22.2°C 71.4°F21.9°C 98% 1.9 mph S3.1 kmh S 8.0 mph12.9 kmh 30.02 in1016.6 mb 0.00 in0.0 mm 0.00 in0.0 mm 0.08 in2.0 mm
05:02 AM 72.0°F22.2°C 71.4°F21.9°C 98% 3.2 mph SSW5.1 kmh SSW 7.0 mph11.3 kmh 30.02 in1016.6 mb 0.00 in0.0 mm 0.00 in0.0 mm 0.08 in2.0 mm
05:07 AM 72.0°F22.2°C 71.4°F21.9°C 98% 2.6 mph SSW4.2 kmh SSW 7.0 mph11.3 kmh 30.02 in1016.6 mb 0.00 in0.0 mm 0.00 in0.0 mm 0.08 in2.0 mm
05:12 AM 72.0°F22.2°C 71.4°F21.9°C 98% 1.5 mph SE2.4 kmh SE 7.0 mph11.3 kmh 30.02 in1016.6 mb 0.00 in0.0 mm 0.00 in0.0 mm 0.08 in2.0 mm
05:17 AM 72.0°F22.2°C 71.4°F21.9°C 98% 2.3 mph SSW3.7 kmh SSW 7.0 mph11.3 kmh 30.03 in1016.9 mb 0.00 in0.0 mm 0.00 in0.0 mm 0.08 in2.0 mm
05:22 AM 72.0°F22.2°C 71.4°F21.9°C 98% 1.7 mph S2.7 kmh S 7.0 mph11.3 kmh 30.03 in1016.9 mb 0.00 in0.0 mm 0.00 in0.0 mm 0.08 in2.0 mm
05:27 AM 72.0°F22.2°C 71.4°F21.9°C 98% 2.5 mph SE4.0 kmh SE 7.0 mph11.3 kmh 30.03 in1016.9 mb 0.00 in0.0 mm 0.00 in0.0 mm 0.08 in2.0 mm
05:32 AM 72.0°F22.2°C 71.4°F21.9°C 98% 2.2 mph SSW3.5 kmh SSW 7.0 mph11.3 kmh 30.03 in1016.9 mb 0.00 in0.0 mm 0.00 in0.0 mm 0.08 in2.0 mm
05:37 AM 72.0°F22.2°C 71.4°F21.9°C 98% 2.8 mph S4.5 kmh S 7.0 mph11.3 kmh 30.03 in1016.9 mb 0.00 in0.0 mm 0.00 in0.0 mm 0.08 in2.0 mm
05:42 AM 72.0°F22.2°C 71.4°F21.9°C 98% 1.4 mph S2.3 kmh S 7.0 mph11.3 kmh 30.04 in1017.3 mb 0.00 in0.0 mm 0.00 in0.0 mm 0.08 in2.0 mm
05:47 AM 72.0°F22.2°C 71.4°F21.9°C 98% 2.1 mph SSW3.4 kmh SSW 7.0 mph11.3 kmh 30.04 in1017.3 mb 0.00 in0.0 mm 0.00 in0.0 mm 0.08 in2.0 mm
05:52 AM 72.0°F22.2°C 71.4°F21.9°C 98% 2.0 mph SSE3.2 kmh SSE 9.0 mph14.5 kmh 30.04 in1017.3 mb 0.00 in0.0 mm 0.00 in0.0 mm 0.08 in2.0 mm
05:57 AM 72.0°F22.2°C 71.4°F21.9°C 98% 1.5 mph SW2.4 kmh SW 9.0 mph14.5 kmh 30.04 in1017.3 mb 0.00 in0.0 mm 0.00 in0.0 mm 0.08 in2.0 mm
06:02 AM 72.0°F22.2°C 71.4°F21.9°C 98% 1.7 mph S2.7 kmh S 9.0 mph14.5 kmh 30.04 in1017.3 mb 0.00 in0.0 mm 0.00 in0.0 mm 0.08 in2.0 mm
06:07 AM 72.0°F22.2°C 71.4°F21.9°C 98% 1.5 mph SW2.4 kmh SW 9.0 mph14.5 kmh 30.04 in1017.3 mb 0.00 in0.0 mm 0.00 in0.0 mm 0.08 in2.0 mm
06:12 AM 72.1°F22.3°C 71.5°F21.9°C 98% 2.6 mph S4.2 kmh S 6.0 mph9.7 kmh 30.04 in1017.3 mb 0.00 in0.0 mm 0.00 in0.0 mm 0.08 in2.0 mm
06:17 AM 72.0°F22.2°C 71.4°F21.9°C 98% 1.9 mph S3.1 kmh S 6.0 mph9.7 kmh 30.04 in1017.3 mb 0.00 in0.0 mm 0.00 in0.0 mm 0.08 in2.0 mm
06:22 AM 72.0°F22.2°C 71.4°F21.9°C 98% 1.5 mph S2.4 kmh S 5.0 mph8.0 kmh 30.05 in1017.6 mb 0.00 in0.0 mm 0.00 in0.0 mm 0.08 in2.0 mm
06:27 AM 72.1°F22.3°C 71.5°F21.9°C 98% 2.2 mph SSW3.5 kmh SSW 5.0 mph8.0 kmh 30.05 in1017.6 mb 0.00 in0.0 mm 0.00 in0.0 mm 0.08 in2.0 mm
06:32 AM 72.1°F22.3°C 71.5°F21.9°C 98% 1.0 mph SW1.6 kmh SW 5.0 mph8.0 kmh 30.05 in1017.6 mb 0.00 in0.0 mm 0.00 in0.0 mm 0.08 in2.0 mm
06:37 AM 72.1°F22.3°C 71.5°F21.9°C 98% 1.1 mph SW1.8 kmh SW 4.0 mph6.4 kmh 30.04 in1017.3 mb 0.00 in0.0 mm 0.00 in0.0 mm 0.08 in2.0 mm
06:42 AM 72.1°F22.3°C 71.5°F21.9°C 98% 1.8 mph SE2.9 kmh SE 4.0 mph6.4 kmh 30.04 in1017.3 mb 0.00 in0.0 mm 0.00 in0.0 mm 0.08 in2.0 mm
06:47 AM 72.0°F22.2°C 71.4°F21.9°C 98% 1.3 mph S2.1 kmh S 3.0 mph4.8 kmh 30.04 in1017.3 mb 0.01 in0.3 mm 0.12 in3.0 mm 0.09 in2.3 mm
06:52 AM 72.0°F22.2°C 71.4°F21.9°C 98% 1.8 mph SW2.9 kmh SW 3.0 mph4.8 kmh 30.04 in1017.3 mb 0.02 in0.5 mm 0.12 in3.0 mm 0.10 in2.5 mm
06:57 AM 72.0°F22.2°C 71.4°F21.9°C 98% 1.7 mph SSE2.7 kmh SSE 4.0 mph6.4 kmh 30.03 in1016.9 mb 0.02 in0.5 mm 0.00 in0.0 mm 0.10 in2.5 mm
07:02 AM 72.1°F22.3°C 71.5°F21.9°C 98% 1.3 mph SW2.1 kmh SW 4.0 mph6.4 kmh 30.03 in1016.9 mb 0.02 in0.5 mm 0.00 in0.0 mm 0.10 in2.5 mm
07:07 AM 72.1°F22.3°C 71.5°F21.9°C 98% 1.4 mph SSW2.3 kmh SSW 4.0 mph6.4 kmh 30.04 in1017.3 mb 0.02 in0.5 mm 0.00 in0.0 mm 0.10 in2.5 mm
07:12 AM 72.2°F22.3°C 71.6°F22.0°C 98% 1.0 mph SSW1.6 kmh SSW 4.0 mph6.4 kmh 30.03 in1016.9 mb 0.02 in0.5 mm 0.00 in0.0 mm 0.10 in2.5 mm
07:17 AM 72.2°F22.3°C 71.6°F22.0°C 98% 1.5 mph SSW2.4 kmh SSW 4.0 mph6.4 kmh 30.03 in1016.9 mb 0.03 in0.8 mm 0.12 in3.0 mm 0.11 in2.8 mm
07:22 AM 72.3°F22.4°C 71.7°F22.1°C 98% Calm Calm 4.0 mph6.4 kmh 30.03 in1016.9 mb 0.03 in0.8 mm 0.00 in0.0 mm 0.11 in2.8 mm
07:27 AM 72.4°F22.4°C 71.8°F22.1°C 98% 1.3 mph WSW2.1 kmh WSW 6.0 mph9.7 kmh 30.03 in1016.9 mb 0.03 in0.8 mm 0.00 in0.0 mm 0.11 in2.8 mm
07:32 AM 72.4°F22.4°C 71.8°F22.1°C 98% 1.9 mph SW3.1 kmh SW 6.0 mph9.7 kmh 30.03 in1016.9 mb 0.03 in0.8 mm 0.00 in0.0 mm 0.11 in2.8 mm
07:37 AM 72.6°F22.6°C 72.0°F22.2°C 98% 1.5 mph SSW2.4 kmh SSW 6.0 mph9.7 kmh 30.03 in1016.9 mb 0.03 in0.8 mm 0.00 in0.0 mm 0.11 in2.8 mm
07:42 AM 72.7°F22.6°C 72.1°F22.3°C 98% Calm Calm 5.0 mph8.0 kmh 30.03 in1016.9 mb 0.03 in0.8 mm 0.00 in0.0 mm 0.11 in2.8 mm
07:47 AM 72.8°F22.7°C 72.2°F22.3°C 98% 1.8 mph SW2.9 kmh SW 5.0 mph8.0 kmh 30.03 in1016.9 mb 0.02 in0.5 mm 0.00 in0.0 mm 0.11 in2.8 mm
07:52 AM 72.9°F22.7°C 72.3°F22.4°C 98% Calm Calm 5.0 mph8.0 kmh 30.03 in1016.9 mb 0.01 in0.3 mm 0.00 in0.0 mm 0.11 in2.8 mm
07:57 AM 73.1°F22.8°C 72.5°F22.5°C 98% 2.2 mph S3.5 kmh S 5.0 mph8.0 kmh 30.03 in1016.9 mb 0.01 in0.3 mm 0.00 in0.0 mm 0.11 in2.8 mm
08:02 AM 73.2°F22.9°C 72.6°F22.6°C 98% 1.3 mph SW2.1 kmh SW 5.0 mph8.0 kmh 30.03 in1016.9 mb 0.01 in0.3 mm 0.00 in0.0 mm 0.11 in2.8 mm
08:07 AM 73.3°F22.9°C 72.7°F22.6°C 98% 1.1 mph SSE1.8 kmh SSE 5.0 mph8.0 kmh 30.04 in1017.3 mb 0.01 in0.3 mm 0.00 in0.0 mm 0.11 in2.8 mm
08:12 AM 73.3°F22.9°C 72.7°F22.6°C 98% 1.8 mph SSE2.9 kmh SSE 6.0 mph9.7 kmh 30.04 in1017.3 mb 0.01 in0.3 mm 0.00 in0.0 mm 0.11 in2.8 mm
08:17 AM 73.4°F23.0°C 72.5°F22.5°C 97% 1.7 mph SSW2.7 kmh SSW 6.0 mph9.7 kmh 30.04 in1017.3 mb 0.00 in0.0 mm 0.00 in0.0 mm 0.11 in2.8 mm
08:22 AM 73.5°F23.1°C 72.6°F22.6°C 97% 2.0 mph SW3.2 kmh SW 6.0 mph9.7 kmh 30.04 in1017.3 mb 0.00 in0.0 mm 0.00 in0.0 mm 0.11 in2.8 mm
08:27 AM 73.6°F23.1°C 72.7°F22.6°C 97% 1.6 mph S2.6 kmh S 6.0 mph9.7 kmh 30.04 in1017.3 mb 0.00 in0.0 mm 0.00 in0.0 mm 0.11 in2.8 mm
08:32 AM 73.9°F23.3°C 73.0°F22.8°C 97% 2.1 mph SW3.4 kmh SW 6.0 mph9.7 kmh 30.04 in1017.3 mb 0.00 in0.0 mm 0.00 in0.0 mm 0.11 in2.8 mm
08:37 AM 73.9°F23.3°C 73.0°F22.8°C 97% 1.5 mph SW2.4 kmh SW 8.0 mph12.9 kmh 30.04 in1017.3 mb 0.00 in0.0 mm 0.00 in0.0 mm 0.11 in2.8 mm
08:42 AM 74.1°F23.4°C 73.2°F22.9°C 97% 1.3 mph SW2.1 kmh SW 8.0 mph12.9 kmh 30.05 in1017.6 mb 0.00 in0.0 mm 0.00 in0.0 mm 0.11 in2.8 mm
08:47 AM 74.2°F23.4°C 73.3°F22.9°C 97% 1.3 mph SE2.1 kmh SE 8.0 mph12.9 kmh 30.05 in1017.6 mb 0.00 in0.0 mm 0.00 in0.0 mm 0.11 in2.8 mm
08:52 AM 74.4°F23.6°C 73.2°F22.9°C 96% 2.5 mph S4.0 kmh S 8.0 mph12.9 kmh 30.06 in1017.9 mb 0.00 in0.0 mm 0.00 in0.0 mm 0.11 in2.8 mm
08:57 AM 74.5°F23.6°C 73.3°F22.9°C 96% 2.2 mph S3.5 kmh S 8.0 mph12.9 kmh 30.06 in1017.9 mb 0.00 in0.0 mm 0.00 in0.0 mm 0.11 in2.8 mm
09:02 AM 74.8°F23.8°C 73.6°F23.1°C 96% 1.5 mph SSE2.4 kmh SSE 8.0 mph12.9 kmh 30.06 in1017.9 mb 0.00 in0.0 mm 0.00 in0.0 mm 0.11 in2.8 mm
09:07 AM 75.1°F23.9°C 73.5°F23.1°C 95% 2.2 mph S3.5 kmh S 8.0 mph12.9 kmh 30.06 in1017.9 mb 0.00 in0.0 mm 0.00 in0.0 mm 0.11 in2.8 mm
09:12 AM 75.3°F24.1°C 73.4°F23.0°C 94% 3.8 mph S6.1 kmh S 8.0 mph12.9 kmh 30.06 in1017.9 mb 0.00 in0.0 mm 0.00 in0.0 mm 0.11 in2.8 mm
09:17 AM 75.5°F24.2°C 73.3°F22.9°C 93% 3.2 mph SSW5.1 kmh SSW 9.0 mph14.5 kmh 30.06 in1017.9 mb 0.00 in0.0 mm 0.00 in0.0 mm 0.11 in2.8 mm
09:22 AM 75.9°F24.4°C 73.4°F23.0°C 92% 3.6 mph SW5.8 kmh SW 9.0 mph14.5 kmh 30.06 in1017.9 mb 0.00 in0.0 mm 0.00 in0.0 mm 0.11 in2.8 mm
09:27 AM 76.2°F24.6°C 73.4°F23.0°C 91% 2.4 mph SSE3.9 kmh SSE 9.0 mph14.5 kmh 30.06 in1017.9 mb 0.00 in0.0 mm 0.00 in0.0 mm 0.11 in2.8 mm
09:32 AM 76.1°F24.5°C 73.0°F22.8°C 90% 2.8 mph SSE4.5 kmh SSE 11.0 mph17.7 kmh 30.07 in1018.3 mb 0.01 in0.3 mm 0.12 in3.0 mm 0.12 in3.0 mm
09:37 AM 76.0°F24.4°C 72.9°F22.7°C 90% 2.4 mph SW3.9 kmh SW 11.0 mph17.7 kmh 30.06 in1017.9 mb 0.01 in0.3 mm 0.00 in0.0 mm 0.12 in3.0 mm
09:42 AM 75.9°F24.4°C 72.8°F22.7°C 90% 1.6 mph SSW2.6 kmh SSW 11.0 mph17.7 kmh 30.07 in1018.3 mb 0.01 in0.3 mm 0.00 in0.0 mm 0.12 in3.0 mm
09:47 AM 75.7°F24.3°C 72.6°F22.6°C 90% 2.5 mph S4.0 kmh S 11.0 mph17.7 kmh 30.06 in1017.9 mb 0.01 in0.3 mm 0.00 in0.0 mm 0.12 in3.0 mm
09:52 AM 75.8°F24.3°C 72.7°F22.6°C 90% 2.7 mph S4.3 kmh S 9.0 mph14.5 kmh 30.06 in1017.9 mb 0.01 in0.3 mm 0.00 in0.0 mm 0.12 in3.0 mm
09:57 AM 76.0°F24.4°C 72.9°F22.7°C 90% 1.7 mph S2.7 kmh S 9.0 mph14.5 kmh 30.06 in1017.9 mb 0.01 in0.3 mm 0.00 in0.0 mm 0.12 in3.0 mm
10:02 AM 76.1°F24.5°C 72.9°F22.7°C 90% 2.2 mph SW3.5 kmh SW 9.0 mph14.5 kmh 30.06 in1017.9 mb 0.01 in0.3 mm 0.00 in0.0 mm 0.12 in3.0 mm
10:07 AM 76.2°F24.6°C 73.0°F22.8°C 90% 2.4 mph SW3.9 kmh SW 9.0 mph14.5 kmh 30.06 in1017.9 mb 0.01 in0.3 mm 0.00 in0.0 mm 0.12 in3.0 mm
10:12 AM 76.5°F24.7°C 73.3°F22.9°C 90% 2.3 mph SW3.7 kmh SW 6.0 mph9.7 kmh 30.06 in1017.9 mb 0.01 in0.3 mm 0.00 in0.0 mm 0.12 in3.0 mm
10:17 AM 76.8°F24.9°C 73.6°F23.1°C 90% 1.3 mph SE2.1 kmh SE 6.0 mph9.7 kmh 30.06 in1017.9 mb 0.01 in0.3 mm 0.00 in0.0 mm 0.12 in3.0 mm
10:22 AM 76.9°F24.9°C 73.7°F23.2°C 90% 2.4 mph SW3.9 kmh SW 6.0 mph9.7 kmh 30.07 in1018.3 mb 0.01 in0.3 mm 0.00 in0.0 mm 0.12 in3.0 mm
10:27 AM 77.0°F25.0°C 73.5°F23.1°C 89% 2.6 mph S4.2 kmh S 7.0 mph11.3 kmh 30.06 in1017.9 mb 0.01 in0.3 mm 0.00 in0.0 mm 0.12 in3.0 mm
10:32 AM 77.0°F25.0°C 73.5°F23.1°C 89% 2.3 mph SW3.7 kmh SW 7.0 mph11.3 kmh 30.07 in1018.3 mb 0.00 in0.0 mm 0.00 in0.0 mm 0.12 in3.0 mm
10:37 AM 77.2°F25.1°C 73.7°F23.2°C 89% 1.6 mph SW2.6 kmh SW 7.0 mph11.3 kmh 30.07 in1018.3 mb 0.00 in0.0 mm 0.00 in0.0 mm 0.12 in3.0 mm
10:42 AM 77.2°F25.1°C 73.7°F23.2°C 89% 2.1 mph SSE3.4 kmh SSE 7.0 mph11.3 kmh 30.07 in1018.3 mb 0.00 in0.0 mm 0.00 in0.0 mm 0.12 in3.0 mm
10:47 AM 77.4°F25.2°C 73.9°F23.3°C 89% 1.9 mph S3.1 kmh S 7.0 mph11.3 kmh 30.06 in1017.9 mb 0.00 in0.0 mm 0.00 in0.0 mm 0.12 in3.0 mm
10:52 AM 77.5°F25.3°C 73.7°F23.2°C 88% 1.6 mph S2.6 kmh S 6.0 mph9.7 kmh 30.06 in1017.9 mb 0.00 in0.0 mm 0.00 in0.0 mm 0.12 in3.0 mm
10:57 AM 77.5°F25.3°C 74.0°F23.3°C 89% 2.1 mph SE3.4 kmh SE 6.0 mph9.7 kmh 30.06 in1017.9 mb 0.00 in0.0 mm 0.00 in0.0 mm 0.12 in3.0 mm
11:02 AM 77.6°F25.3°C 74.1°F23.4°C 89% 1.8 mph SSE2.9 kmh SSE 6.0 mph9.7 kmh 30.06 in1017.9 mb 0.00 in0.0 mm 0.00 in0.0 mm 0.12 in3.0 mm
11:07 AM 77.6°F25.3°C 73.8°F23.2°C 88% 1.6 mph SSW2.6 kmh SSW 6.0 mph9.7 kmh 30.06 in1017.9 mb 0.00 in0.0 mm 0.00 in0.0 mm 0.12 in3.0 mm
11:12 AM 77.4°F25.2°C 73.6°F23.1°C 88% 3.1 mph SW5.0 kmh SW 8.0 mph12.9 kmh 30.06 in1017.9 mb 0.00 in0.0 mm 0.00 in0.0 mm 0.12 in3.0 mm
11:17 AM 77.3°F25.2°C 73.8°F23.2°C 89% 2.4 mph S3.9 kmh S 8.0 mph12.9 kmh 30.06 in1017.9 mb 0.00 in0.0 mm 0.00 in0.0 mm 0.12 in3.0 mm
11:22 AM 77.3°F25.2°C 74.1°F23.4°C 90% 1.8 mph SW2.9 kmh SW 8.0 mph12.9 kmh 30.06 in1017.9 mb 0.00 in0.0 mm 0.00 in0.0 mm 0.12 in3.0 mm
11:27 AM 77.3°F25.2°C 73.8°F23.2°C 89% 2.5 mph SW4.0 kmh SW 8.0 mph12.9 kmh 30.06 in1017.9 mb 0.00 in0.0 mm 0.00 in0.0 mm 0.12 in3.0 mm
11:32 AM 77.2°F25.1°C 73.7°F23.2°C 89% 1.9 mph SSW3.1 kmh SSW 7.0 mph11.3 kmh 30.06 in1017.9 mb 0.00 in0.0 mm 0.00 in0.0 mm 0.12 in3.0 mm
11:37 AM 77.1°F25.1°C 73.9°F23.3°C 90% 2.0 mph S3.2 kmh S 7.0 mph11.3 kmh 30.05 in1017.6 mb 0.00 in0.0 mm 0.00 in0.0 mm 0.12 in3.0 mm
11:42 AM 77.0°F25.0°C 74.2°F23.4°C 91% 2.0 mph SW3.2 kmh SW 7.0 mph11.3 kmh 30.05 in1017.6 mb 0.00 in0.0 mm 0.00 in0.0 mm 0.12 in3.0 mm
11:47 AM 76.8°F24.9°C 74.0°F23.3°C 91% 1.5 mph WSW2.4 kmh WSW 5.0 mph8.0 kmh 30.05 in1017.6 mb 0.01 in0.3 mm 0.12 in3.0 mm 0.13 in3.3 mm
11:52 AM 76.6°F24.8°C 74.1°F23.4°C 92% 1.0 mph SW1.6 kmh SW 4.0 mph6.4 kmh 30.05 in1017.6 mb 0.01 in0.3 mm 0.00 in0.0 mm 0.13 in3.3 mm
11:57 AM 76.4°F24.7°C 74.2°F23.4°C 93% 1.4 mph SW2.3 kmh SW 4.0 mph6.4 kmh 30.05 in1017.6 mb 0.01 in0.3 mm 0.00 in0.0 mm 0.13 in3.3 mm
12:02 PM 76.4°F24.7°C 74.2°F23.4°C 93% 1.0 mph WSW1.6 kmh WSW 4.0 mph6.4 kmh 30.05 in1017.6 mb 0.02 in0.5 mm 0.01 in0.3 mm 0.14 in3.6 mm
12:07 PM 76.3°F24.6°C 74.1°F23.4°C 93% 1.6 mph SW2.6 kmh SW 4.0 mph6.4 kmh 30.04 in1017.3 mb 0.02 in0.5 mm 0.00 in0.0 mm 0.14 in3.6 mm
12:12 PM 76.3°F24.6°C 74.1°F23.4°C 93% 1.3 mph SW2.1 kmh SW 5.0 mph8.0 kmh 30.04 in1017.3 mb 0.02 in0.5 mm 0.00 in0.0 mm 0.14 in3.6 mm
12:17 PM 76.2°F24.6°C 74.0°F23.3°C 93% 2.2 mph SW3.5 kmh SW 5.0 mph8.0 kmh 30.04 in1017.3 mb 0.02 in0.5 mm 0.00 in0.0 mm 0.14 in3.6 mm
12:22 PM 76.2°F24.6°C 74.0°F23.3°C 93% 1.2 mph SW1.9 kmh SW 5.0 mph8.0 kmh 30.04 in1017.3 mb 0.02 in0.5 mm 0.00 in0.0 mm 0.14 in3.6 mm
12:27 PM 76.5°F24.7°C 74.6°F23.7°C 94% Calm Calm 5.0 mph8.0 kmh 30.04 in1017.3 mb 0.02 in0.5 mm 0.00 in0.0 mm 0.14 in3.6 mm
12:32 PM 76.8°F24.9°C 74.6°F23.7°C 93% 1.0 mph SW1.6 kmh SW 5.0 mph8.0 kmh 30.03 in1016.9 mb 0.02 in0.5 mm 0.00 in0.0 mm 0.14 in3.6 mm
12:37 PM 77.0°F25.0°C 74.8°F23.8°C 93% 1.0 mph SW1.6 kmh SW 5.0 mph8.0 kmh 30.03 in1016.9 mb 0.02 in0.5 mm 0.00 in0.0 mm 0.14 in3.6 mm
12:42 PM 77.1°F25.1°C 74.9°F23.8°C 93% 2.3 mph SW3.7 kmh SW 6.0 mph9.7 kmh 30.03 in1016.9 mb 0.02 in0.5 mm 0.00 in0.0 mm 0.14 in3.6 mm
12:47 PM 77.1°F25.1°C 74.6°F23.7°C 92% 1.1 mph SW1.8 kmh SW 6.0 mph9.7 kmh 30.03 in1016.9 mb 0.01 in0.3 mm 0.00 in0.0 mm 0.14 in3.6 mm
12:52 PM 77.2°F25.1°C 74.7°F23.7°C 92% Calm Calm 6.0 mph9.7 kmh 30.03 in1016.9 mb 0.01 in0.3 mm 0.00 in0.0 mm 0.14 in3.6 mm
12:57 PM 77.2°F25.1°C 74.7°F23.7°C 92% 1.4 mph SW2.3 kmh SW 6.0 mph9.7 kmh 30.03 in1016.9 mb 0.02 in0.5 mm 0.12 in3.0 mm 0.15 in3.8 mm
01:02 PM 77.0°F25.0°C 74.5°F23.6°C 92% 1.4 mph SW2.3 kmh SW 3.0 mph4.8 kmh 30.02 in1016.6 mb 0.02 in0.5 mm 0.00 in0.0 mm 0.16 in4.1 mm
01:07 PM 76.9°F24.9°C 74.7°F23.7°C 93% 1.3 mph WSW2.1 kmh WSW 5.0 mph8.0 kmh 30.02 in1016.6 mb 0.02 in0.5 mm 0.00 in0.0 mm 0.16 in4.1 mm
01:12 PM 77.0°F25.0°C 74.8°F23.8°C 93% 2.6 mph SW4.2 kmh SW 5.0 mph8.0 kmh 30.01 in1016.3 mb 0.02 in0.5 mm 0.00 in0.0 mm 0.16 in4.1 mm
01:17 PM 77.1°F25.1°C 74.9°F23.8°C 93% 1.9 mph WSW3.1 kmh WSW 5.0 mph8.0 kmh 30.01 in1016.3 mb 0.02 in0.5 mm 0.00 in0.0 mm 0.16 in4.1 mm
01:22 PM 77.0°F25.0°C 74.5°F23.6°C 92% 1.8 mph WSW2.9 kmh WSW 5.0 mph8.0 kmh 30.01 in1016.3 mb 0.02 in0.5 mm 0.00 in0.0 mm 0.16 in4.1 mm
01:27 PM 76.9°F24.9°C 74.7°F23.7°C 93% 1.1 mph WNW1.8 kmh WNW 6.0 mph9.7 kmh 30.01 in1016.3 mb 0.02 in0.5 mm 0.00 in0.0 mm 0.16 in4.1 mm
01:32 PM 77.0°F25.0°C 74.8°F23.8°C 93% 1.0 mph WSW1.6 kmh WSW 6.0 mph9.7 kmh 30.01 in1016.3 mb 0.02 in0.5 mm 0.00 in0.0 mm 0.16 in4.1 mm
01:37 PM 77.3°F25.2°C 75.1°F23.9°C 93% Calm Calm 6.0 mph9.7 kmh 30.01 in1016.3 mb 0.02 in0.5 mm 0.00 in0.0 mm 0.16 in4.1 mm
01:42 PM 77.3°F25.2°C 75.1°F23.9°C 93% Calm Calm 4.0 mph6.4 kmh 30.01 in1016.3 mb 0.02 in0.5 mm 0.00 in0.0 mm 0.16 in4.1 mm
01:47 PM 77.2°F25.1°C 74.7°F23.7°C 92% 1.0 mph WSW1.6 kmh WSW 4.0 mph6.4 kmh 30.01 in1016.3 mb 0.02 in0.5 mm 0.00 in0.0 mm 0.16 in4.1 mm
01:52 PM 77.2°F25.1°C 75.0°F23.9°C 93% Calm Calm 1.0 mph1.6 kmh 30.01 in1016.3 mb 0.02 in0.5 mm 0.00 in0.0 mm 0.16 in4.1 mm
01:57 PM 77.4°F25.2°C 74.9°F23.8°C 92% Calm Calm 1.0 mph1.6 kmh 30.01 in1016.3 mb 0.01 in0.3 mm 0.00 in0.0 mm 0.16 in4.1 mm
02:03 PM 77.4°F25.2°C 74.9°F23.8°C 92% 1.6 mph E2.6 kmh E 2.0 mph3.2 kmh 30.00 in1015.9 mb 0.00 in0.0 mm 0.00 in0.0 mm 0.16 in4.1 mm
02:08 PM 77.3°F25.2°C 74.8°F23.8°C 92% 2.7 mph E4.3 kmh E 5.0 mph8.0 kmh 30.01 in1016.3 mb 0.00 in0.0 mm 0.00 in0.0 mm 0.16 in4.1 mm
02:13 PM 77.2°F25.1°C 74.7°F23.7°C 92% 3.7 mph ESE6.0 kmh ESE 7.0 mph11.3 kmh 30.01 in1016.3 mb 0.00 in0.0 mm 0.00 in0.0 mm 0.16 in4.1 mm
02:18 PM 76.9°F24.9°C 74.7°F23.7°C 93% 3.3 mph ESE5.3 kmh ESE 9.0 mph14.5 kmh 30.01 in1016.3 mb 0.00 in0.0 mm 0.00 in0.0 mm 0.16 in4.1 mm
02:22 PM 76.3°F24.6°C 74.1°F23.4°C 93% 3.3 mph E5.3 kmh E 9.0 mph14.5 kmh 30.01 in1016.3 mb 0.00 in0.0 mm 0.00 in0.0 mm 0.16 in4.1 mm
02:28 PM 75.8°F24.3°C 73.6°F23.1°C 93% 5.1 mph ESE8.2 kmh ESE 11.0 mph17.7 kmh 30.00 in1015.9 mb 0.00 in0.0 mm 0.00 in0.0 mm 0.16 in4.1 mm
02:33 PM 75.5°F24.2°C 73.7°F23.2°C 94% 4.4 mph ESE7.1 kmh ESE 11.0 mph17.7 kmh 30.01 in1016.3 mb 0.00 in0.0 mm 0.00 in0.0 mm 0.16 in4.1 mm
02:38 PM 75.3°F24.1°C 73.5°F23.1°C 94% 4.5 mph SE7.2 kmh SE 11.0 mph17.7 kmh 30.00 in1015.9 mb 0.00 in0.0 mm 0.00 in0.0 mm 0.16 in4.1 mm
02:43 PM 75.4°F24.1°C 73.5°F23.1°C 94% 3.9 mph ESE6.3 kmh ESE 11.0 mph17.7 kmh 30.00 in1015.9 mb 0.00 in0.0 mm 0.00 in0.0 mm 0.16 in4.1 mm
02:48 PM 75.6°F24.2°C 73.7°F23.2°C 94% 2.8 mph SE4.5 kmh SE 11.0 mph17.7 kmh 30.00 in1015.9 mb 0.00 in0.0 mm 0.00 in0.0 mm 0.16 in4.1 mm
02:53 PM 75.8°F24.3°C 73.6°F23.1°C 93% 4.3 mph ESE6.9 kmh ESE 8.0 mph12.9 kmh 30.00 in1015.9 mb 0.00 in0.0 mm 0.00 in0.0 mm 0.16 in4.1 mm
02:58 PM 76.0°F24.4°C 73.8°F23.2°C 93% 3.2 mph SE5.1 kmh SE 8.0 mph12.9 kmh 30.00 in1015.9 mb 0.00 in0.0 mm 0.00 in0.0 mm 0.16 in4.1 mm
03:03 PM 76.1°F24.5°C 73.9°F23.3°C 93% 2.6 mph ESE4.2 kmh ESE 8.0 mph12.9 kmh 30.00 in1015.9 mb 0.00 in0.0 mm 0.00 in0.0 mm 0.16 in4.1 mm
03:08 PM 76.3°F24.6°C 74.1°F23.4°C 93% 2.8 mph ESE4.5 kmh ESE 8.0 mph12.9 kmh 30.00 in1015.9 mb 0.00 in0.0 mm 0.00 in0.0 mm 0.16 in4.1 mm
03:13 PM 76.6°F24.8°C 74.7°F23.7°C 94% 3.2 mph E5.1 kmh E 7.0 mph11.3 kmh 29.99 in1015.6 mb 0.00 in0.0 mm 0.00 in0.0 mm 0.16 in4.1 mm
03:18 PM 76.8°F24.9°C 74.9°F23.8°C 94% 1.6 mph E2.6 kmh E 6.0 mph9.7 kmh 29.99 in1015.6 mb 0.00 in0.0 mm 0.00 in0.0 mm 0.16 in4.1 mm
03:23 PM 77.0°F25.0°C 74.8°F23.8°C 93% 1.5 mph E2.4 kmh E 6.0 mph9.7 kmh 29.99 in1015.6 mb 0.00 in0.0 mm 0.00 in0.0 mm 0.16 in4.1 mm
03:28 PM 77.1°F25.1°C 74.6°F23.7°C 92% 2.9 mph ESE4.7 kmh ESE 6.0 mph9.7 kmh 29.99 in1015.6 mb 0.00 in0.0 mm 0.00 in0.0 mm 0.16 in4.1 mm
03:33 PM 77.0°F25.0°C 74.8°F23.8°C 93% 2.5 mph E4.0 kmh E 6.0 mph9.7 kmh 29.99 in1015.6 mb 0.00 in0.0 mm 0.00 in0.0 mm 0.16 in4.1 mm
03:38 PM 77.0°F25.0°C 74.8°F23.8°C 93% 2.7 mph E4.3 kmh E 6.0 mph9.7 kmh 29.99 in1015.6 mb 0.00 in0.0 mm 0.00 in0.0 mm 0.16 in4.1 mm
03:43 PM 76.9°F24.9°C 74.7°F23.7°C 93% 3.2 mph ESE5.1 kmh ESE 6.0 mph9.7 kmh 29.99 in1015.6 mb 0.00 in0.0 mm 0.00 in0.0 mm 0.16 in4.1 mm
03:48 PM 76.8°F24.9°C 74.6°F23.7°C 93% 2.0 mph E3.2 kmh E 6.0 mph9.7 kmh 29.98 in1015.2 mb 0.00 in0.0 mm 0.00 in0.0 mm 0.16 in4.1 mm
03:53 PM 76.7°F24.8°C 74.8°F23.8°C 94% 2.9 mph E4.7 kmh E 6.0 mph9.7 kmh 29.98 in1015.2 mb 0.00 in0.0 mm 0.00 in0.0 mm 0.16 in4.1 mm
03:58 PM 76.5°F24.7°C 74.6°F23.7°C 94% 2.7 mph E4.3 kmh E 6.0 mph9.7 kmh 29.98 in1015.2 mb 0.01 in0.3 mm 0.12 in3.0 mm 0.17 in4.3 mm
04:03 PM 76.3°F24.6°C 74.4°F23.6°C 94% 2.7 mph ENE4.3 kmh ENE 6.0 mph9.7 kmh 29.98 in1015.2 mb 0.01 in0.3 mm 0.00 in0.0 mm 0.17 in4.3 mm
04:08 PM 76.3°F24.6°C 74.7°F23.7°C 95% 2.2 mph ESE3.5 kmh ESE 6.0 mph9.7 kmh 29.98 in1015.2 mb 0.01 in0.3 mm 0.00 in0.0 mm 0.17 in4.3 mm
04:13 PM 76.4°F24.7°C 74.8°F23.8°C 95% 2.6 mph ESE4.2 kmh ESE 6.0 mph9.7 kmh 29.98 in1015.2 mb 0.01 in0.3 mm 0.00 in0.0 mm 0.17 in4.3 mm
04:18 PM 76.5°F24.7°C 74.9°F23.8°C 95% 2.3 mph SE3.7 kmh SE 5.0 mph8.0 kmh 29.98 in1015.2 mb 0.01 in0.3 mm 0.00 in0.0 mm 0.17 in4.3 mm
04:23 PM 76.7°F24.8°C 75.1°F23.9°C 95% 2.4 mph ESE3.9 kmh ESE 5.0 mph8.0 kmh 29.99 in1015.6 mb 0.01 in0.3 mm 0.00 in0.0 mm 0.17 in4.3 mm
04:28 PM 76.8°F24.9°C 75.2°F24.0°C 95% 2.3 mph SSE3.7 kmh SSE 5.0 mph8.0 kmh 29.99 in1015.6 mb 0.01 in0.3 mm 0.00 in0.0 mm 0.17 in4.3 mm
04:33 PM 76.9°F24.9°C 75.0°F23.9°C 94% 2.2 mph S3.5 kmh S 7.0 mph11.3 kmh 29.99 in1015.6 mb 0.01 in0.3 mm 0.00 in0.0 mm 0.17 in4.3 mm
04:38 PM 77.0°F25.0°C 75.1°F23.9°C 94% 2.5 mph SE4.0 kmh SE 7.0 mph11.3 kmh 29.99 in1015.6 mb 0.01 in0.3 mm 0.00 in0.0 mm 0.17 in4.3 mm
04:43 PM 77.0°F25.0°C 74.8°F23.8°C 93% 1.7 mph SE2.7 kmh SE 7.0 mph11.3 kmh 29.99 in1015.6 mb 0.01 in0.3 mm 0.00 in0.0 mm 0.17 in4.3 mm
04:48 PM 77.0°F25.0°C 74.8°F23.8°C 93% 2.1 mph SSE3.4 kmh SSE 7.0 mph11.3 kmh 29.99 in1015.6 mb 0.01 in0.3 mm 0.00 in0.0 mm 0.17 in4.3 mm
04:53 PM 77.1°F25.1°C 74.6°F23.7°C 92% 2.2 mph S3.5 kmh S 6.0 mph9.7 kmh 30.00 in1015.9 mb 0.01 in0.3 mm 0.00 in0.0 mm 0.17 in4.3 mm
04:58 PM 77.0°F25.0°C 74.5°F23.6°C 92% 1.9 mph SSE3.1 kmh SSE 6.0 mph9.7 kmh 30.00 in1015.9 mb 0.00 in0.0 mm 0.00 in0.0 mm 0.17 in4.3 mm
05:03 PM 77.0°F25.0°C 74.2°F23.4°C 91% 1.9 mph S3.1 kmh S 6.0 mph9.7 kmh 30.00 in1015.9 mb 0.00 in0.0 mm 0.00 in0.0 mm 0.17 in4.3 mm
05:08 PM 77.0°F25.0°C 74.2°F23.4°C 91% 2.2 mph S3.5 kmh S 6.0 mph9.7 kmh 30.00 in1015.9 mb 0.00 in0.0 mm 0.00 in0.0 mm 0.17 in4.3 mm
05:13 PM 77.0°F25.0°C 74.2°F23.4°C 91% 2.1 mph SE3.4 kmh SE 6.0 mph9.7 kmh 30.00 in1015.9 mb 0.00 in0.0 mm 0.00 in0.0 mm 0.17 in4.3 mm
05:18 PM 77.0°F25.0°C 74.2°F23.4°C 91% 2.0 mph SSE3.2 kmh SSE 6.0 mph9.7 kmh 30.00 in1015.9 mb 0.00 in0.0 mm 0.00 in0.0 mm 0.17 in4.3 mm
05:23 PM 77.0°F25.0°C 74.2°F23.4°C 91% 2.8 mph SE4.5 kmh SE 7.0 mph11.3 kmh 30.00 in1015.9 mb 0.00 in0.0 mm 0.00 in0.0 mm 0.17 in4.3 mm
05:28 PM 77.1°F25.1°C 74.3°F23.5°C 91% 1.2 mph S1.9 kmh S 7.0 mph11.3 kmh 30.00 in1015.9 mb 0.00 in0.0 mm 0.00 in0.0 mm 0.17 in4.3 mm
05:33 PM 77.0°F25.0°C 74.2°F23.4°C 91% 3.6 mph SE5.8 kmh SE 7.0 mph11.3 kmh 30.00 in1015.9 mb 0.00 in0.0 mm 0.00 in0.0 mm 0.17 in4.3 mm
05:38 PM 77.0°F25.0°C 74.2°F23.4°C 91% 1.8 mph SE2.9 kmh SE 7.0 mph11.3 kmh 30.00 in1015.9 mb 0.00 in0.0 mm 0.00 in0.0 mm 0.17 in4.3 mm
05:43 PM 77.0°F25.0°C 74.2°F23.4°C 91% 1.8 mph SE2.9 kmh SE 6.0 mph9.7 kmh 30.00 in1015.9 mb 0.00 in0.0 mm 0.00 in0.0 mm 0.17 in4.3 mm
05:48 PM 77.0°F25.0°C 74.2°F23.4°C 91% 1.5 mph SE2.4 kmh SE 6.0 mph9.7 kmh 30.00 in1015.9 mb 0.00 in0.0 mm 0.00 in0.0 mm 0.17 in4.3 mm
05:53 PM 76.9°F24.9°C 74.4°F23.6°C 92% 1.4 mph SE2.3 kmh SE 4.0 mph6.4 kmh 30.00 in1015.9 mb 0.00 in0.0 mm 0.00 in0.0 mm 0.17 in4.3 mm
05:58 PM 76.7°F24.8°C 74.2°F23.4°C 92% 1.8 mph SE2.9 kmh SE 4.0 mph6.4 kmh 30.00 in1015.9 mb 0.00 in0.0 mm 0.00 in0.0 mm 0.17 in4.3 mm
06:03 PM 76.6°F24.8°C 74.1°F23.4°C 92% 1.5 mph S2.4 kmh S 5.0 mph8.0 kmh 30.00 in1015.9 mb 0.00 in0.0 mm 0.00 in0.0 mm 0.17 in4.3 mm
06:08 PM 76.4°F24.7°C 73.9°F23.3°C 92% 1.3 mph SSE2.1 kmh SSE 5.0 mph8.0 kmh 30.00 in1015.9 mb 0.00 in0.0 mm 0.00 in0.0 mm 0.17 in4.3 mm
06:13 PM 76.4°F24.7°C 74.2°F23.4°C 93% 1.4 mph S2.3 kmh S 5.0 mph8.0 kmh 30.00 in1015.9 mb 0.00 in0.0 mm 0.00 in0.0 mm 0.17 in4.3 mm
06:18 PM 76.3°F24.6°C 74.1°F23.4°C 93% 1.3 mph SE2.1 kmh SE 5.0 mph8.0 kmh 30.00 in1015.9 mb 0.00 in0.0 mm 0.00 in0.0 mm 0.17 in4.3 mm
06:23 PM 76.2°F24.6°C 74.0°F23.3°C 93% 1.8 mph SSE2.9 kmh SSE 4.0 mph6.4 kmh 30.00 in1015.9 mb 0.00 in0.0 mm 0.00 in0.0 mm 0.17 in4.3 mm
06:28 PM 76.1°F24.5°C 73.9°F23.3°C 93% 1.8 mph SE2.9 kmh SE 4.0 mph6.4 kmh 29.99 in1015.6 mb 0.00 in0.0 mm 0.00 in0.0 mm 0.17 in4.3 mm
06:33 PM 76.1°F24.5°C 73.9°F23.3°C 93% 1.5 mph SE2.4 kmh SE 4.0 mph6.4 kmh 29.99 in1015.6 mb 0.00 in0.0 mm 0.00 in0.0 mm 0.17 in4.3 mm
06:38 PM 76.0°F24.4°C 74.1°F23.4°C 94% 2.1 mph S3.4 kmh S 4.0 mph6.4 kmh 30.00 in1015.9 mb 0.00 in0.0 mm 0.00 in0.0 mm 0.17 in4.3 mm
06:43 PM 75.9°F24.4°C 74.0°F23.3°C 94% 1.6 mph SE2.6 kmh SE 4.0 mph6.4 kmh 29.99 in1015.6 mb 0.00 in0.0 mm 0.00 in0.0 mm 0.17 in4.3 mm
06:48 PM 75.9°F24.4°C 74.0°F23.3°C 94% 1.7 mph SSE2.7 kmh SSE 4.0 mph6.4 kmh 30.00 in1015.9 mb 0.00 in0.0 mm 0.00 in0.0 mm 0.17 in4.3 mm
06:53 PM 75.8°F24.3°C 73.9°F23.3°C 94% 1.1 mph S1.8 kmh S 4.0 mph6.4 kmh 30.00 in1015.9 mb 0.00 in0.0 mm 0.00 in0.0 mm 0.17 in4.3 mm
06:58 PM 75.6°F24.2°C 73.7°F23.2°C 94% 1.0 mph SW1.6 kmh SW 3.0 mph4.8 kmh 30.00 in1015.9 mb 0.00 in0.0 mm 0.00 in0.0 mm 0.17 in4.3 mm
07:03 PM 75.5°F24.2°C 73.6°F23.1°C 94% Calm Calm 2.0 mph3.2 kmh 30.00 in1015.9 mb 0.00 in0.0 mm 0.00 in0.0 mm 0.17 in4.3 mm
07:08 PM 75.4°F24.1°C 73.5°F23.1°C 94% 1.5 mph SSE2.4 kmh SSE 3.0 mph4.8 kmh 30.01 in1016.3 mb 0.00 in0.0 mm 0.00 in0.0 mm 0.17 in4.3 mm
07:13 PM 75.3°F24.1°C 73.4°F23.0°C 94% 1.3 mph SSW2.1 kmh SSW 3.0 mph4.8 kmh 30.00 in1015.9 mb 0.00 in0.0 mm 0.00 in0.0 mm 0.17 in4.3 mm
07:18 PM 75.2°F24.0°C 73.6°F23.1°C 95% 1.0 mph SE1.6 kmh SE 3.0 mph4.8 kmh 30.00 in1015.9 mb 0.00 in0.0 mm 0.00 in0.0 mm 0.17 in4.3 mm
07:23 PM 75.1°F23.9°C 73.6°F23.1°C 95% 2.2 mph SE3.5 kmh SE 3.0 mph4.8 kmh 30.01 in1016.3 mb 0.00 in0.0 mm 0.00 in0.0 mm 0.17 in4.3 mm
07:28 PM 74.9°F23.8°C 73.3°F22.9°C 95% 1.6 mph SW2.6 kmh SW 3.0 mph4.8 kmh 30.01 in1016.3 mb 0.00 in0.0 mm 0.00 in0.0 mm 0.17 in4.3 mm
07:33 PM 74.8°F23.8°C 73.2°F22.9°C 95% Calm Calm 3.0 mph4.8 kmh 30.01 in1016.3 mb 0.00 in0.0 mm 0.00 in0.0 mm 0.17 in4.3 mm
07:38 PM 74.7°F23.7°C 73.1°F22.8°C 95% 1.0 mph S1.6 kmh S 3.0 mph4.8 kmh 30.01 in1016.3 mb 0.00 in0.0 mm 0.00 in0.0 mm 0.17 in4.3 mm
07:43 PM 74.6°F23.7°C 73.0°F22.8°C 95% 1.4 mph SSE2.3 kmh SSE 3.0 mph4.8 kmh 30.02 in1016.6 mb 0.00 in0.0 mm 0.00 in0.0 mm 0.17 in4.3 mm
07:48 PM 74.6°F23.7°C 73.1°F22.8°C 95% Calm Calm 3.0 mph4.8 kmh 30.02 in1016.6 mb 0.00 in0.0 mm 0.00 in0.0 mm 0.17 in4.3 mm
07:53 PM 74.5°F23.6°C 73.0°F22.8°C 95% Calm Calm 3.0 mph4.8 kmh 30.02 in1016.6 mb 0.00 in0.0 mm 0.00 in0.0 mm 0.17 in4.3 mm
07:58 PM 74.4°F23.6°C 73.2°F22.9°C 96% Calm Calm 3.0 mph4.8 kmh 30.02 in1016.6 mb 0.00 in0.0 mm 0.00 in0.0 mm 0.17 in4.3 mm
08:03 PM 74.2°F23.4°C 73.0°F22.8°C 96% Calm Calm 1.0 mph1.6 kmh 30.02 in1016.6 mb 0.00 in0.0 mm 0.00 in0.0 mm 0.17 in4.3 mm
08:08 PM 74.2°F23.4°C 73.0°F22.8°C 96% Calm Calm 1.0 mph1.6 kmh 30.02 in1016.6 mb 0.00 in0.0 mm 0.00 in0.0 mm 0.17 in4.3 mm
08:13 PM 74.2°F23.4°C 73.0°F22.8°C 96% 1.3 mph SW2.1 kmh SW 2.0 mph3.2 kmh 30.02 in1016.6 mb 0.00 in0.0 mm 0.00 in0.0 mm 0.17 in4.3 mm
08:18 PM 74.1°F23.4°C 72.9°F22.7°C 96% 1.0 mph SW1.6 kmh SW 2.0 mph3.2 kmh 30.02 in1016.6 mb 0.00 in0.0 mm 0.00 in0.0 mm 0.17 in4.3 mm
08:23 PM 74.1°F23.4°C 72.9°F22.7°C 96% 1.0 mph WSW1.6 kmh WSW 2.0 mph3.2 kmh 30.02 in1016.6 mb 0.00 in0.0 mm 0.00 in0.0 mm 0.17 in4.3 mm
08:28 PM 74.1°F23.4°C 72.9°F22.7°C 96% Calm Calm 2.0 mph3.2 kmh 30.03 in1016.9 mb 0.00 in0.0 mm 0.00 in0.0 mm 0.17 in4.3 mm
08:33 PM 74.0°F23.3°C 72.8°F22.7°C 96% 1.0 mph SW1.6 kmh SW 2.0 mph3.2 kmh 30.03 in1016.9 mb 0.00 in0.0 mm 0.00 in0.0 mm 0.17 in4.3 mm
08:38 PM 73.9°F23.3°C 72.7°F22.6°C 96% 1.0 mph SW1.6 kmh SW 2.0 mph3.2 kmh 30.03 in1016.9 mb 0.00 in0.0 mm 0.00 in0.0 mm 0.17 in4.3 mm
08:43 PM 73.8°F23.2°C 72.6°F22.6°C 96% 1.0 mph SSW1.6 kmh SSW 1.0 mph1.6 kmh 30.03 in1016.9 mb 0.00 in0.0 mm 0.00 in0.0 mm 0.17 in4.3 mm
08:48 PM 73.7°F23.2°C 72.5°F22.5°C 96% 1.0 mph SW1.6 kmh SW 2.0 mph3.2 kmh 30.04 in1017.3 mb 0.00 in0.0 mm 0.00 in0.0 mm 0.17 in4.3 mm
08:53 PM 73.6°F23.1°C 72.4°F22.4°C 96% 1.0 mph SW1.6 kmh SW 2.0 mph3.2 kmh 30.04 in1017.3 mb 0.00 in0.0 mm 0.00 in0.0 mm 0.17 in4.3 mm
08:58 PM 73.6°F23.1°C 72.4°F22.4°C 96% 1.0 mph SW1.6 kmh SW 2.0 mph3.2 kmh 30.04 in1017.3 mb 0.01 in0.3 mm 0.12 in3.0 mm 0.18 in4.6 mm
09:03 PM 73.5°F23.1°C 72.3°F22.4°C 96% 1.0 mph S1.6 kmh S 2.0 mph3.2 kmh 30.05 in1017.6 mb 0.01 in0.3 mm 0.00 in0.0 mm 0.18 in4.6 mm
09:08 PM 73.5°F23.1°C 72.3°F22.4°C 96% 1.0 mph SE1.6 kmh SE 1.0 mph1.6 kmh 30.05 in1017.6 mb 0.01 in0.3 mm 0.00 in0.0 mm 0.18 in4.6 mm
09:13 PM 73.4°F23.0°C 72.2°F22.3°C 96% 1.0 mph S1.6 kmh S 1.0 mph1.6 kmh 30.05 in1017.6 mb 0.01 in0.3 mm 0.00 in0.0 mm 0.18 in4.6 mm
09:18 PM 73.4°F23.0°C 72.2°F22.3°C 96% Calm Calm 1.0 mph1.6 kmh 30.05 in1017.6 mb 0.01 in0.3 mm 0.00 in0.0 mm 0.18 in4.6 mm
09:23 PM 73.3°F22.9°C 72.1°F22.3°C 96% Calm Calm 1.0 mph1.6 kmh 30.05 in1017.6 mb 0.01 in0.3 mm 0.00 in0.0 mm 0.18 in4.6 mm
09:28 PM 73.4°F23.0°C 72.2°F22.3°C 96% Calm Calm 1.0 mph1.6 kmh 30.05 in1017.6 mb 0.01 in0.3 mm 0.00 in0.0 mm 0.18 in4.6 mm
09:33 PM 73.3°F22.9°C 72.1°F22.3°C 96% Calm Calm -- 30.05 in1017.6 mb 0.01 in0.3 mm 0.00 in0.0 mm 0.18 in4.6 mm
09:38 PM 73.3°F22.9°C 72.1°F22.3°C 96% Calm Calm -- 30.06 in1017.9 mb 0.01 in0.3 mm 0.00 in0.0 mm 0.18 in4.6 mm
09:43 PM 73.3°F22.9°C 72.1°F22.3°C 96% Calm Calm -- 30.06 in1017.9 mb 0.01 in0.3 mm 0.00 in0.0 mm 0.18 in4.6 mm
09:48 PM 73.3°F22.9°C 72.1°F22.3°C 96% Calm Calm -- 30.05 in1017.6 mb 0.01 in0.3 mm 0.00 in0.0 mm 0.18 in4.6 mm
09:53 PM 73.2°F22.9°C 72.0°F22.2°C 96% Calm Calm -- 30.06 in1017.9 mb 0.02 in0.5 mm 0.12 in3.0 mm 0.19 in4.8 mm
09:58 PM 73.1°F22.8°C 71.9°F22.2°C 96% Calm Calm -- 30.06 in1017.9 mb 0.01 in0.3 mm 0.00 in0.0 mm 0.19 in4.8 mm
10:03 PM 73.2°F22.9°C 72.3°F22.4°C 97% Calm Calm -- 30.05 in1017.6 mb 0.01 in0.3 mm 0.00 in0.0 mm 0.19 in4.8 mm
10:08 PM 73.1°F22.8°C 72.2°F22.3°C 97% 1.0 mph SE1.6 kmh SE 1.0 mph1.6 kmh 30.05 in1017.6 mb 0.01 in0.3 mm 0.00 in0.0 mm 0.19 in4.8 mm
10:13 PM 73.1°F22.8°C 72.2°F22.3°C 97% 1.0 mph SE1.6 kmh SE 1.0 mph1.6 kmh 30.05 in1017.6 mb 0.01 in0.3 mm 0.00 in0.0 mm 0.19 in4.8 mm
10:18 PM 73.2°F22.9°C 72.3°F22.4°C 97% 1.3 mph ESE2.1 kmh ESE 2.0 mph3.2 kmh 30.05 in1017.6 mb 0.01 in0.3 mm 0.00 in0.0 mm 0.19 in4.8 mm
10:23 PM 73.2°F22.9°C 72.3°F22.4°C 97% 1.5 mph SE2.4 kmh SE 3.0 mph4.8 kmh 30.05 in1017.6 mb 0.01 in0.3 mm 0.00 in0.0 mm 0.19 in4.8 mm
10:28 PM 73.3°F22.9°C 72.4°F22.4°C 97% 1.0 mph SE1.6 kmh SE 3.0 mph4.8 kmh 30.05 in1017.6 mb 0.01 in0.3 mm 0.00 in0.0 mm 0.19 in4.8 mm
10:33 PM 73.3°F22.9°C 72.4°F22.4°C 97% 1.5 mph SE2.4 kmh SE 3.0 mph4.8 kmh 30.05 in1017.6 mb 0.01 in0.3 mm 0.00 in0.0 mm 0.19 in4.8 mm
10:38 PM 73.4°F23.0°C 72.5°F22.5°C 97% 1.0 mph SE1.6 kmh SE 3.0 mph4.8 kmh 30.05 in1017.6 mb 0.01 in0.3 mm 0.00 in0.0 mm 0.19 in4.8 mm
10:43 PM 73.3°F22.9°C 72.4°F22.4°C 97% Calm Calm 2.0 mph3.2 kmh 30.05 in1017.6 mb 0.01 in0.3 mm 0.00 in0.0 mm 0.19 in4.8 mm
10:48 PM 73.4°F23.0°C 72.5°F22.5°C 97% Calm Calm 2.0 mph3.2 kmh 30.05 in1017.6 mb 0.01 in0.3 mm 0.00 in0.0 mm 0.19 in4.8 mm
10:53 PM 73.3°F22.9°C 72.4°F22.4°C 97% 1.3 mph SSE2.1 kmh SSE 2.0 mph3.2 kmh 30.05 in1017.6 mb 0.00 in0.0 mm 0.00 in0.0 mm 0.19 in4.8 mm
10:58 PM 73.3°F22.9°C 72.4°F22.4°C 97% 1.5 mph SSW2.4 kmh SSW 3.0 mph4.8 kmh 30.05 in1017.6 mb 0.00 in0.0 mm 0.00 in0.0 mm 0.19 in4.8 mm
11:03 PM 73.3°F22.9°C 72.4°F22.4°C 97% 1.0 mph SE1.6 kmh SE 4.0 mph6.4 kmh 30.06 in1017.9 mb 0.00 in0.0 mm 0.00 in0.0 mm 0.17 in4.3 mm
11:08 PM 73.3°F22.9°C 72.4°F22.4°C 97% 1.0 mph SSE1.6 kmh SSE 4.0 mph6.4 kmh 30.06 in1017.9 mb 0.00 in0.0 mm 0.00 in0.0 mm 0.17 in4.3 mm
11:13 PM 73.2°F22.9°C 72.3°F22.4°C 97% 1.1 mph SE1.8 kmh SE 4.0 mph6.4 kmh 30.06 in1017.9 mb 0.00 in0.0 mm 0.00 in0.0 mm 0.17 in4.3 mm
11:18 PM 73.3°F22.9°C 72.4°F22.4°C 97% 1.0 mph SSE1.6 kmh SSE 4.0 mph6.4 kmh 30.06 in1017.9 mb 0.00 in0.0 mm 0.00 in0.0 mm 0.17 in4.3 mm
11:23 PM 73.3°F22.9°C 72.4°F22.4°C 97% 1.3 mph SE2.1 kmh SE 3.0 mph4.8 kmh 30.06 in1017.9 mb 0.01 in0.3 mm 0.12 in3.0 mm 0.01 in0.3 mm
11:28 PM 73.2°F22.9°C 72.3°F22.4°C 97% 1.8 mph SSE2.9 kmh SSE 6.0 mph9.7 kmh 30.06 in1017.9 mb 0.01 in0.3 mm 0.00 in0.0 mm 0.01 in0.3 mm
11:33 PM 73.2°F22.9°C 72.3°F22.4°C 97% 1.9 mph SE3.1 kmh SE 6.0 mph9.7 kmh 30.05 in1017.6 mb 0.01 in0.3 mm 0.00 in0.0 mm 0.01 in0.3 mm
11:38 PM 73.2°F22.9°C 72.3°F22.4°C 97% 1.8 mph SE2.9 kmh SE 6.0 mph9.7 kmh 30.05 in1017.6 mb 0.01 in0.3 mm 0.00 in0.0 mm 0.01 in0.3 mm
11:43 PM 73.1°F22.8°C 72.2°F22.3°C 97% 2.3 mph SE3.7 kmh SE 6.0 mph9.7 kmh 30.05 in1017.6 mb 0.01 in0.3 mm 0.00 in0.0 mm 0.01 in0.3 mm
11:48 PM 73.1°F22.8°C 72.5°F22.5°C 98% 1.1 mph SSE1.8 kmh SSE 6.0 mph9.7 kmh 30.05 in1017.6 mb 0.01 in0.3 mm 0.00 in0.0 mm 0.01 in0.3 mm
11:53 PM 73.1°F22.8°C 72.5°F22.5°C 98% 1.3 mph ESE2.1 kmh ESE 5.0 mph8.0 kmh 30.05 in1017.6 mb 0.01 in0.3 mm 0.00 in0.0 mm 0.01 in0.3 mm
11:58 PM 73.1°F22.8°C 72.5°F22.5°C 98% 1.0 mph SE1.6 kmh SE 5.0 mph8.0 kmh 30.05 in1017.6 mb 0.01 in0.3 mm 0.00 in0.0 mm 0.01 in0.3 mm